createdAt,value
2019-06-01T00:02:25.074Z,42.51
2019-06-01T00:04:56.807Z,42.52
2019-06-01T00:07:28.787Z,42.54
2019-06-01T00:10:00.712Z,42.60
2019-06-01T00:12:31.585Z,42.56
2019-06-01T00:15:03.333Z,42.40
2019-06-01T00:17:34.986Z,42.40
2019-06-01T00:20:06.777Z,42.51
2019-06-01T00:22:37.491Z,42.47
2019-06-01T00:25:09.372Z,42.44
2019-06-01T00:27:41.054Z,42.48
2019-06-01T00:30:26.160Z,42.40
2019-06-01T00:32:47.319Z,42.30
2019-06-01T00:35:18.998Z,42.30
2019-06-01T00:37:51.769Z,42.27
2019-06-01T00:40:23.754Z,42.25
2019-06-01T00:42:54.505Z,42.32
2019-06-01T00:45:26.289Z,42.30
2019-06-01T00:47:58.292Z,42.34
2019-06-01T00:50:30.030Z,42.29
2019-06-01T00:53:01.757Z,42.29
2019-06-01T00:55:32.445Z,42.25
2019-06-01T00:58:04.286Z,42.20
2019-06-01T01:00:43.843Z,42.24
2019-06-01T01:03:09.328Z,42.26
2019-06-01T01:05:41.055Z,42.26
2019-06-01T01:08:12.766Z,42.23
2019-06-01T01:10:44.727Z,42.17
2019-06-01T01:13:19.697Z,42.21
2019-06-01T01:15:51.399Z,42.18
2019-06-01T01:18:23.357Z,42.26
2019-06-01T01:20:56.161Z,42.15
2019-06-01T01:23:28.361Z,42.15
2019-06-01T01:26:00.137Z,42.23
2019-06-01T01:28:31.800Z,42.11
2019-06-01T01:31:13.468Z,42.13
2019-06-01T01:33:36.954Z,42.14
2019-06-01T01:36:08.776Z,42.15
2019-06-01T01:38:40.340Z,42.12
2019-06-01T01:41:12.399Z,42.07
2019-06-01T01:43:44.322Z,42.06
2019-06-01T01:46:15.858Z,42.06
2019-06-01T01:48:47.734Z,42.04
2019-06-01T01:51:18.491Z,42.02
2019-06-01T01:53:50.611Z,41.98
2019-06-01T01:56:23.095Z,42.02
2019-06-01T01:58:54.762Z,42.07
2019-06-01T02:01:25.587Z,42.03
2019-06-01T02:03:57.444Z,42.00
2019-06-01T02:06:29.535Z,41.84
2019-06-01T02:09:01.864Z,41.84
2019-06-01T02:11:33.662Z,41.92
2019-06-01T02:14:05.763Z,41.95
2019-06-01T02:16:36.448Z,41.95
2019-06-01T02:19:08.435Z,41.89
2019-06-01T02:21:40.310Z,41.86
2019-06-01T02:24:11.961Z,41.80
2019-06-01T02:26:43.722Z,41.82
2019-06-01T02:29:14.476Z,41.83
2019-06-01T02:31:46.740Z,41.82
2019-06-01T02:34:18.362Z,41.78
2019-06-01T02:36:50.057Z,41.86
2019-06-01T02:39:21.795Z,41.78
2019-06-01T02:41:54.913Z,41.81
2019-06-01T02:44:26.761Z,41.80
2019-06-01T02:46:59.496Z,41.80
2019-06-01T02:49:30.507Z,41.78
2019-06-01T02:52:03.461Z,41.77
2019-06-01T02:54:35.358Z,41.77
2019-06-01T02:57:07.053Z,41.77
2019-06-01T02:59:38.696Z,41.76
2019-06-01T03:02:13.480Z,41.77
2019-06-01T03:04:43.226Z,41.77
2019-06-01T03:07:14.874Z,41.76
2019-06-01T03:09:46.406Z,41.74
2019-06-01T03:12:19.221Z,41.74
2019-06-01T03:14:50.701Z,41.71
2019-06-01T03:17:21.457Z,41.65
2019-06-01T03:19:53.477Z,41.67
2019-06-01T03:22:25.258Z,41.67
2019-06-01T03:24:56.865Z,41.73
2019-06-01T03:27:28.529Z,41.75
2019-06-01T03:30:00.755Z,41.69
2019-06-01T03:32:36.563Z,41.78
2019-06-01T03:35:06.779Z,41.68
2019-06-01T03:37:38.380Z,41.69
2019-06-01T03:40:19.724Z,41.72
2019-06-01T03:42:43.766Z,41.69
2019-06-01T03:45:14.495Z,41.68
2019-06-01T03:47:46.709Z,41.66
2019-06-01T03:50:17.471Z,41.65
2019-06-01T03:52:49.405Z,41.65
2019-06-01T03:55:21.062Z,41.63
2019-06-01T03:57:53.055Z,41.56
2019-06-01T04:00:24.737Z,41.58
2019-06-01T04:02:55.453Z,41.56
2019-06-01T04:05:27.298Z,41.57
2019-06-01T04:07:58.929Z,41.51
2019-06-01T04:10:30.761Z,41.56
2019-06-01T04:13:01.511Z,41.55
2019-06-01T04:15:33.307Z,41.67
2019-06-01T04:18:06.063Z,41.67
2019-06-01T04:20:37.837Z,41.81
2019-06-01T04:23:10.218Z,41.84
2019-06-01T04:25:41.783Z,41.90
2019-06-01T04:28:13.740Z,41.91
2019-06-01T04:30:45.297Z,41.96
2019-06-01T04:33:17.221Z,41.97
2019-06-01T04:35:48.671Z,41.99
2019-06-01T04:38:19.347Z,41.93
2019-06-01T04:40:51.474Z,41.89
2019-06-01T04:43:22.977Z,41.89
2019-06-01T04:45:54.698Z,41.88
2019-06-01T04:48:26.007Z,41.80
2019-06-01T04:50:57.895Z,41.76
2019-06-01T04:53:29.426Z,41.78
2019-06-01T04:56:01.348Z,41.80
2019-06-01T04:58:33.054Z,41.75
2019-06-01T05:01:05.293Z,41.78
2019-06-01T05:03:36.830Z,41.76
2019-06-01T05:06:09.249Z,41.74
2019-06-01T05:08:41.059Z,41.73
2019-06-01T05:11:13.562Z,41.73
2019-06-01T05:13:44.492Z,41.63
2019-06-01T05:16:16.640Z,41.63
2019-06-01T05:18:49.009Z,41.64
2019-06-01T05:21:21.465Z,41.65
2019-06-01T05:23:53.332Z,41.61
2019-06-01T05:26:24.855Z,41.64
2019-06-01T05:28:56.746Z,41.65
2019-06-01T05:31:28.979Z,41.63
2019-06-01T05:34:01.118Z,41.70
2019-06-01T05:36:33.312Z,41.78
2019-06-01T05:39:08.128Z,41.66
2019-06-01T05:41:40.344Z,41.63
2019-06-01T05:44:12.878Z,41.68
2019-06-01T05:46:44.757Z,41.73
2019-06-01T05:49:16.461Z,41.66
2019-06-01T05:51:47.987Z,41.66
2019-06-01T05:54:19.753Z,41.71
2019-06-01T05:56:50.588Z,41.73
2019-06-01T05:59:22.339Z,41.71
2019-06-01T06:01:54.330Z,41.71
2019-06-01T06:04:26.303Z,41.83
2019-06-01T06:06:58.221Z,41.75
2019-06-01T06:09:30.299Z,41.73
2019-06-01T06:12:02.140Z,41.64
2019-06-01T06:14:34.299Z,41.63
2019-06-01T06:17:05.815Z,41.57
2019-06-01T06:19:37.339Z,41.43
2019-06-01T06:22:09.119Z,41.35
2019-06-01T06:24:41.298Z,41.32
2019-06-01T06:27:12.842Z,41.25
2019-06-01T06:29:44.780Z,41.22
2019-06-01T06:32:17.236Z,41.20
2019-06-01T06:34:49.346Z,41.24
2019-06-01T06:37:22.050Z,41.34
2019-06-01T06:39:53.768Z,41.54
2019-06-01T06:42:25.120Z,41.61
2019-06-01T06:44:56.775Z,41.66
2019-06-01T06:47:28.382Z,41.66
2019-06-01T06:50:02.120Z,41.74
2019-06-01T06:52:33.850Z,41.75
2019-06-01T06:55:05.803Z,41.77
2019-06-01T06:57:37.378Z,41.77
2019-06-01T07:00:09.807Z,41.81
2019-06-01T07:02:41.661Z,41.79
2019-06-01T07:07:30.306Z,41.91
2019-06-01T07:10:05.272Z,41.91
2019-06-01T07:12:37.997Z,41.87
2019-06-01T07:15:09.798Z,41.81
2019-06-01T07:19:04.793Z,41.81
2019-06-01T07:21:40.316Z,41.81
2019-06-01T07:24:12.405Z,41.74
2019-06-01T07:26:53.342Z,41.71
2019-06-01T07:29:26.278Z,41.61
2019-06-01T07:31:58.374Z,41.59
2019-06-01T07:34:39.725Z,41.59
2019-06-01T07:37:10.328Z,41.50
2019-06-01T07:39:47.284Z,41.42
2019-06-01T07:42:23.034Z,41.34
2019-06-01T07:44:53.376Z,41.21
2019-06-01T07:47:25.374Z,41.12
2019-06-01T07:49:58.608Z,41.02
2019-06-01T07:52:32.237Z,40.98
2019-06-01T07:55:06.643Z,41.02
2019-06-01T07:57:42.574Z,41.02
2019-06-01T08:00:18.427Z,41.07
2019-06-01T08:02:53.627Z,41.19
2019-06-01T08:05:26.523Z,41.23
2019-06-01T08:08:02.902Z,41.30
2019-06-01T08:10:39.759Z,41.30
2019-06-01T08:13:13.301Z,41.48
2019-06-01T08:15:48.360Z,41.63
2019-06-01T08:18:23.898Z,41.80
2019-06-01T08:20:55.810Z,41.66
2019-06-01T08:23:28.364Z,41.70
2019-06-01T08:26:01.757Z,41.95
2019-06-01T08:28:34.742Z,41.95
2019-06-01T08:31:08.187Z,41.91
2019-06-01T08:33:40.714Z,41.99
2019-06-01T08:36:11.504Z,41.81
2019-06-01T08:38:49.357Z,41.83
2019-06-01T08:41:36.946Z,41.98
2019-06-01T08:44:12.105Z,41.89
2019-06-01T08:46:47.269Z,41.94
2019-06-01T08:49:22.036Z,41.87
2019-06-01T08:51:53.820Z,41.90
2019-06-01T08:54:28.118Z,41.87
2019-06-01T08:57:00.992Z,41.88
2019-06-01T08:59:32.772Z,41.89
2019-06-01T09:02:03.451Z,41.86
2019-06-01T09:04:35.385Z,41.89
2019-06-01T09:07:10.153Z,41.85
2019-06-01T09:09:44.983Z,41.85
2019-06-01T09:12:16.770Z,41.83
2019-06-01T09:14:48.394Z,41.83
2019-06-01T09:17:20.079Z,41.84
2019-06-01T09:19:54.053Z,41.81
2019-06-01T09:22:27.441Z,41.84
2019-06-01T09:24:58.514Z,41.89
2019-06-01T09:27:30.276Z,41.88
2019-06-01T09:30:02.043Z,41.85
2019-06-01T09:32:34.394Z,41.79
2019-06-01T09:35:07.017Z,41.81
2019-06-01T09:37:38.758Z,42.29
2019-06-01T09:40:11.629Z,42.25
2019-06-01T09:42:43.316Z,42.54
2019-06-01T09:45:15.291Z,42.54
2019-06-01T09:47:47.599Z,42.55
2019-06-01T09:50:19.083Z,42.59
2019-06-01T09:52:51.296Z,42.52
2019-06-01T09:55:22.789Z,42.57
2019-06-01T09:57:54.409Z,42.49
2019-06-01T10:00:26.477Z,42.61
2019-06-01T10:02:57.967Z,42.91
2019-06-01T10:05:30.315Z,43.11
2019-06-01T10:08:02.375Z,43.62
2019-06-01T10:10:34.007Z,43.78
2019-06-01T10:13:07.821Z,43.83
2019-06-01T10:15:40.349Z,43.84
2019-06-01T10:18:12.299Z,43.77
2019-06-01T10:20:45.045Z,43.66
2019-06-01T10:23:17.277Z,43.66
2019-06-01T10:25:49.298Z,43.65
2019-06-01T10:28:20.848Z,43.65
2019-06-01T10:30:52.605Z,43.74
2019-06-01T10:33:24.782Z,44.29
2019-06-01T10:35:56.442Z,44.29
2019-06-01T10:38:28.262Z,44.39
2019-06-01T10:41:00.302Z,44.17
2019-06-01T10:43:33.595Z,44.02
2019-06-01T10:46:05.699Z,43.87
2019-06-01T10:48:36.455Z,43.76
2019-06-01T10:51:08.293Z,43.66
2019-06-01T10:53:41.154Z,43.65
2019-06-01T10:56:12.478Z,43.58
2019-06-01T10:58:59.781Z,43.54
2019-06-01T11:01:17.801Z,43.48
2019-06-01T11:03:49.521Z,43.48
2019-06-01T11:06:36.286Z,43.46
2019-06-01T11:08:54.760Z,43.43
2019-06-01T11:11:25.470Z,43.39
2019-06-01T11:13:57.306Z,43.34
2019-06-01T11:16:29.313Z,43.30
2019-06-01T11:19:01.341Z,43.25
2019-06-01T11:21:33.519Z,43.19
2019-06-01T11:24:04.448Z,43.18
2019-06-01T11:26:37.650Z,43.18
2019-06-01T11:29:08.754Z,43.14
2019-06-01T11:31:41.801Z,43.15
2019-06-01T11:34:14.056Z,43.14
2019-06-01T11:37:03.246Z,43.13
2019-06-01T11:39:19.782Z,43.08
2019-06-01T11:41:51.764Z,43.08
2019-06-01T11:44:22.547Z,43.04
2019-06-01T11:46:54.298Z,42.92
2019-06-01T11:49:27.779Z,42.92
2019-06-01T11:51:59.502Z,42.96
2019-06-01T11:54:31.777Z,42.96
2019-06-01T11:57:02.581Z,42.95
2019-06-01T11:59:35.301Z,42.91
2019-06-01T12:02:06.807Z,42.91
2019-06-01T12:04:39.719Z,42.88
2019-06-01T12:07:17.731Z,43.00
2019-06-01T12:09:46.051Z,43.07
2019-06-01T12:12:17.808Z,42.99
2019-06-01T12:14:49.334Z,42.92
2019-06-01T12:17:21.289Z,42.88
2019-06-01T12:19:52.849Z,42.86
2019-06-01T12:22:25.330Z,42.91
2019-06-01T12:24:57.291Z,42.91
2019-06-01T12:27:28.976Z,42.90
2019-06-01T12:30:00.760Z,42.95
2019-06-01T12:32:31.989Z,43.20
2019-06-01T12:35:04.290Z,43.16
2019-06-01T12:37:55.061Z,43.39
2019-06-01T12:40:09.362Z,43.87
2019-06-01T12:42:41.507Z,43.87
2019-06-01T12:45:23.153Z,44.34
2019-06-01T12:47:58.327Z,44.33
2019-06-01T12:50:27.771Z,44.82
2019-06-01T12:52:59.477Z,44.58
2019-06-01T12:55:31.233Z,44.38
2019-06-01T12:58:02.712Z,44.57
2019-06-01T13:00:33.499Z,44.65
2019-06-01T13:03:07.810Z,44.45
2019-06-01T13:05:38.845Z,44.45
2019-06-01T13:08:10.734Z,44.65
2019-06-01T13:10:42.991Z,44.63
2019-06-01T13:13:14.740Z,44.48
2019-06-01T13:15:45.592Z,44.40
2019-06-01T13:18:17.222Z,44.52
2019-06-01T13:20:49.527Z,44.53
2019-06-01T13:23:20.301Z,44.54
2019-06-01T13:25:52.269Z,44.45
2019-06-01T13:28:37.267Z,44.43
2019-06-01T13:30:57.286Z,44.51
2019-06-01T13:33:28.971Z,44.52
2019-06-01T13:36:00.532Z,44.58
2019-06-01T13:38:32.223Z,44.40
2019-06-01T13:41:03.778Z,44.33
2019-06-01T13:43:35.338Z,44.23
2019-06-01T13:46:07.404Z,44.34
2019-06-01T13:48:38.990Z,44.39
2019-06-01T13:51:11.226Z,44.27
2019-06-01T13:53:44.076Z,44.18
2019-06-01T13:56:15.787Z,44.16
2019-06-01T13:58:48.199Z,44.19
2019-06-01T14:01:19.950Z,44.15
2019-06-01T14:03:52.586Z,44.13
2019-06-01T14:06:25.704Z,44.01
2019-06-01T14:08:56.471Z,44.01
2019-06-01T14:11:28.286Z,44.01
2019-06-01T14:13:59.793Z,43.90
2019-06-01T14:16:32.289Z,43.93
2019-06-01T14:19:06.765Z,43.89
2019-06-01T14:21:37.183Z,43.89
2019-06-01T14:24:10.222Z,43.89
2019-06-01T14:26:41.766Z,43.79
2019-06-01T14:29:13.318Z,43.75
2019-06-01T14:31:44.710Z,43.73
2019-06-01T14:34:16.289Z,43.70
2019-06-01T14:36:48.597Z,43.69
2019-06-01T14:39:20.600Z,43.71
2019-06-01T14:41:53.586Z,43.59
2019-06-01T14:44:24.648Z,43.59
2019-06-01T14:47:03.814Z,43.58
2019-06-01T14:49:28.875Z,43.57
2019-06-01T14:52:00.446Z,43.55
2019-06-01T14:54:32.277Z,43.50
2019-06-01T14:57:04.114Z,43.48
2019-06-01T14:59:35.723Z,43.54
2019-06-01T15:02:06.372Z,43.57
2019-06-01T15:04:37.988Z,43.46
2019-06-01T15:07:09.774Z,43.52
2019-06-01T15:09:41.310Z,43.51
2019-06-01T15:12:13.366Z,43.52
2019-06-01T15:14:45.297Z,43.49
2019-06-01T15:17:16.786Z,43.39
2019-06-01T15:19:49.876Z,43.40
2019-06-01T15:22:21.619Z,43.39
2019-06-01T15:24:54.241Z,43.36
2019-06-01T15:27:26.228Z,43.36
2019-06-01T15:29:58.887Z,43.40
2019-06-01T15:32:30.678Z,43.34
2019-06-01T15:35:03.273Z,43.29
2019-06-01T15:37:35.304Z,43.30
2019-06-01T15:40:07.794Z,43.30
2019-06-01T15:42:39.669Z,43.29
2019-06-01T15:45:11.405Z,43.33
2019-06-01T15:47:44.027Z,43.33
2019-06-01T15:50:16.019Z,43.37
2019-06-01T15:52:47.707Z,43.60
2019-06-01T15:55:18.588Z,43.60
2019-06-01T15:57:50.362Z,43.49
2019-06-01T16:00:22.265Z,43.49
2019-06-01T16:02:54.832Z,43.43
2019-06-01T16:05:26.757Z,43.53
2019-06-01T16:07:57.615Z,43.70
2019-06-01T16:10:29.364Z,43.43
2019-06-01T16:13:01.641Z,43.43
2019-06-01T16:15:33.736Z,43.46
2019-06-01T16:18:04.474Z,43.53
2019-06-01T16:20:36.303Z,43.48
2019-06-01T16:23:07.826Z,43.51
2019-06-01T16:25:52.348Z,43.82
2019-06-01T16:28:19.571Z,43.89
2019-06-01T16:30:51.774Z,43.82
2019-06-01T16:33:22.619Z,43.82
2019-06-01T16:35:54.934Z,43.65
2019-06-01T16:38:26.715Z,43.64
2019-06-01T16:40:59.195Z,43.52
2019-06-01T16:43:31.154Z,43.56
2019-06-01T16:46:03.847Z,43.90
2019-06-01T16:48:35.716Z,43.87
2019-06-01T16:51:06.514Z,43.78
2019-06-01T16:53:38.610Z,43.77
2019-06-01T16:56:10.365Z,43.72
2019-06-01T16:58:42.382Z,43.72
2019-06-01T17:01:14.303Z,43.76
2019-06-01T17:03:46.717Z,43.73
2019-06-01T17:06:17.592Z,43.74
2019-06-01T17:08:49.758Z,43.69
2019-06-01T17:11:20.624Z,43.69
2019-06-01T17:13:52.368Z,43.64
2019-06-01T17:16:23.785Z,43.64
2019-06-01T17:18:56.878Z,43.64
2019-06-01T17:21:28.762Z,43.61
2019-06-01T17:24:01.382Z,43.57
2019-06-01T17:26:32.368Z,43.55
2019-06-01T17:29:04.137Z,43.53
2019-06-01T17:31:36.360Z,43.57
2019-06-01T17:34:08.720Z,43.59
2019-06-01T17:36:51.485Z,43.56
2019-06-01T17:39:24.330Z,43.55
2019-06-01T17:41:55.920Z,43.51
2019-06-01T17:44:27.727Z,43.54
2019-06-01T17:46:59.798Z,43.54
2019-06-01T17:49:31.696Z,43.56
2019-06-01T17:54:47.906Z,43.44
2019-06-01T17:57:19.874Z,43.48
2019-06-01T17:59:51.746Z,43.45
2019-06-01T18:02:24.140Z,43.52
2019-06-01T18:04:55.757Z,43.53
2019-06-01T18:07:26.647Z,43.57
2019-06-01T18:09:57.255Z,43.58
2019-06-01T18:12:28.523Z,43.56
2019-06-01T18:15:00.326Z,43.58
2019-06-01T18:17:32.818Z,43.49
2019-06-01T18:20:04.758Z,43.51
2019-06-01T18:22:36.417Z,43.55
2019-06-01T18:25:08.558Z,43.55
2019-06-01T18:27:39.811Z,43.60
2019-06-01T18:30:12.731Z,43.55
2019-06-01T18:32:44.817Z,43.50
2019-06-01T18:35:19.645Z,43.54
2019-06-01T18:37:52.012Z,43.50
2019-06-01T18:40:24.770Z,43.52
2019-06-01T18:43:00.294Z,43.55
2019-06-01T18:45:33.136Z,43.54
2019-06-01T18:48:06.106Z,43.50
2019-06-01T18:50:37.829Z,43.54
2019-06-01T18:53:12.530Z,43.47
2019-06-01T18:55:45.346Z,43.49
2019-06-01T19:01:02.061Z,43.41
2019-06-01T19:03:38.812Z,43.36
2019-06-01T19:06:11.667Z,43.42
2019-06-01T19:08:43.389Z,43.38
2019-06-01T19:11:29.521Z,43.43
2019-06-01T19:13:50.069Z,43.47
2019-06-01T19:16:22.268Z,43.40
2019-06-01T19:18:54.904Z,43.38
2019-06-01T19:21:26.778Z,43.24
2019-06-01T19:24:02.559Z,43.18
2019-06-01T19:26:37.370Z,43.16
2019-06-01T19:29:11.371Z,43.08
2019-06-01T19:31:44.068Z,43.08
2019-06-01T19:34:17.205Z,43.09
2019-06-01T19:36:49.349Z,43.14
2019-06-01T19:39:21.747Z,43.15
2019-06-01T19:41:53.477Z,43.13
2019-06-01T19:44:26.021Z,43.14
2019-06-01T19:47:05.530Z,43.11
2019-06-01T19:49:36.637Z,43.07
2019-06-01T19:52:08.830Z,43.09
2019-06-01T19:54:40.836Z,43.09
2019-06-01T19:57:17.957Z,43.08
2019-06-01T19:59:46.371Z,43.18
2019-06-01T20:02:29.578Z,43.18
2019-06-01T20:04:51.663Z,43.13
2019-06-01T20:07:22.632Z,43.12
2019-06-01T20:09:54.782Z,43.05
2019-06-01T20:12:25.458Z,43.05
2019-06-01T20:14:57.335Z,43.15
2019-06-01T20:17:29.531Z,43.12
2019-06-01T20:20:01.832Z,43.08
2019-06-01T20:22:33.482Z,43.07
2019-06-01T20:25:08.272Z,43.12
2019-06-01T20:27:41.280Z,43.08
2019-06-01T20:30:17.741Z,43.13
2019-06-01T20:32:49.594Z,43.08
2019-06-01T20:35:22.165Z,43.12
2019-06-01T20:37:54.314Z,43.12
2019-06-01T20:40:28.301Z,43.00
2019-06-01T20:43:00.377Z,43.04
2019-06-01T20:45:32.086Z,43.01
2019-06-01T20:48:06.912Z,43.04
2019-06-01T20:50:40.361Z,43.04
2019-06-01T20:53:14.477Z,43.10
2019-06-01T20:55:46.909Z,43.04
2019-06-01T20:58:21.486Z,42.99
2019-06-01T21:00:52.420Z,42.97
2019-06-01T21:03:24.522Z,42.94
2019-06-01T21:05:56.395Z,43.06
2019-06-01T21:08:28.312Z,43.06
2019-06-01T21:10:59.877Z,43.19
2019-06-01T21:13:31.993Z,43.26
2019-06-01T21:16:03.757Z,43.35
2019-06-01T21:18:34.601Z,43.37
2019-06-01T21:21:06.402Z,43.35
2019-06-01T21:23:38.053Z,43.35
2019-06-01T21:26:10.294Z,43.25
2019-06-01T21:28:42.333Z,43.29
2019-06-01T21:31:14.980Z,43.22
2019-06-01T21:33:54.741Z,43.26
2019-06-01T21:36:25.827Z,43.33
2019-06-01T21:38:57.907Z,43.19
2019-06-01T21:41:33.481Z,43.31
2019-06-01T21:44:05.740Z,43.22
2019-06-01T21:46:40.708Z,43.09
2019-06-01T21:49:15.584Z,43.12
2019-06-01T21:51:52.873Z,43.05
2019-06-01T21:54:31.161Z,43.05
2019-06-01T21:57:10.525Z,43.06
2019-06-01T21:59:45.694Z,42.94
2019-06-01T22:02:18.442Z,43.34
2019-06-01T22:04:49.937Z,43.43
2019-06-01T22:07:23.264Z,42.96
2019-06-01T22:09:55.906Z,43.05
2019-06-01T22:12:28.323Z,42.96
2019-06-01T22:15:00.457Z,43.24
2019-06-01T22:17:32.577Z,43.11
2019-06-01T22:20:04.471Z,43.10
2019-06-01T22:22:36.782Z,43.10
2019-06-01T22:25:08.607Z,43.29
2019-06-01T22:27:40.509Z,43.30
2019-06-01T22:30:12.500Z,43.23
2019-06-01T22:32:44.771Z,43.67
2019-06-01T22:35:15.569Z,43.67
2019-06-01T22:37:48.775Z,43.10
2019-06-01T22:40:23.302Z,43.10
2019-06-01T22:42:54.769Z,43.16
2019-06-01T22:45:29.282Z,43.25
2019-06-01T22:48:02.325Z,43.24
2019-06-01T22:50:33.791Z,43.34
2019-06-01T22:53:05.304Z,43.29
2019-06-01T22:55:37.118Z,43.23
2019-06-01T22:58:08.661Z,43.20
2019-06-01T23:00:39.325Z,43.32
2019-06-01T23:03:10.782Z,43.31
2019-06-01T23:05:42.718Z,43.34
2019-06-01T23:08:13.341Z,43.27
2019-06-01T23:10:45.052Z,43.26
2019-06-01T23:13:16.304Z,43.12
2019-06-01T23:15:48.281Z,43.46
2019-06-01T23:18:20.051Z,43.31
2019-06-01T23:20:51.765Z,43.36
2019-06-01T23:23:22.495Z,43.22
2019-06-01T23:25:54.333Z,43.34
2019-06-01T23:28:26.295Z,43.34
2019-06-01T23:30:58.751Z,43.39
2019-06-01T23:33:30.952Z,43.42
2019-06-01T23:36:02.773Z,43.47
2019-06-01T23:38:34.265Z,43.69
2019-06-01T23:41:06.261Z,43.41
2019-06-01T23:43:37.814Z,43.81
2019-06-01T23:46:09.533Z,43.70
2019-06-01T23:48:41.302Z,43.64
2019-06-01T23:51:13.338Z,43.64
2019-06-01T23:53:45.249Z,43.50
2019-06-01T23:56:17.297Z,43.62
2019-06-01T23:58:48.710Z,43.68
